sensor_id;sensor_type;location;lat;lon;timestamp;temperature;humidity
13806;DHT22;6974;53.606;9.872;2023-07-20T00:00:18;16.20;99.90
13806;DHT22;6974;53.606;9.872;2023-07-20T00:02:46;16.20;99.90
13806;DHT22;6974;53.606;9.872;2023-07-20T00:05:13;16.30;99.90
13806;DHT22;6974;53.606;9.872;2023-07-20T00:07:42;16.30;99.90
13806;DHT22;6974;53.606;9.872;2023-07-20T00:10:09;16.40;99.90
13806;DHT22;6974;53.606;9.872;2023-07-20T00:12:37;16.40;99.90
13806;DHT22;6974;53.606;9.872;2023-07-20T00:15:06;16.40;99.90
13806;DHT22;6974;53.606;9.872;2023-07-20T00:17:34;16.40;99.90
13806;DHT22;6974;53.606;9.872;2023-07-20T00:20:03;16.40;99.90
13806;DHT22;6974;53.606;9.872;2023-07-20T00:22:31;16.40;99.90
13806;DHT22;6974;53.606;9.872;2023-07-20T00:25:00;16.40;99.90
13806;DHT22;6974;53.606;9.872;2023-07-20T00:27:27;16.40;99.90
13806;DHT22;6974;53.606;9.872;2023-07-20T00:29:54;16.40;99.90
13806;DHT22;6974;53.606;9.872;2023-07-20T00:32:21;16.40;99.90
13806;DHT22;6974;53.606;9.872;2023-07-20T00:34:48;16.40;99.90
13806;DHT22;6974;53.606;9.872;2023-07-20T00:37:16;16.40;99.90
13806;DHT22;6974;53.606;9.872;2023-07-20T00:39:43;16.40;99.90
13806;DHT22;6974;53.606;9.872;2023-07-20T00:42:12;16.40;99.90
13806;DHT22;6974;53.606;9.872;2023-07-20T00:44:39;16.50;99.90
13806;DHT22;6974;53.606;9.872;2023-07-20T00:47:06;16.50;99.90
13806;DHT22;6974;53.606;9.872;2023-07-20T00:49:33;16.40;99.90
13806;DHT22;6974;53.606;9.872;2023-07-20T00:52:01;16.40;99.90
13806;DHT22;6974;53.606;9.872;2023-07-20T00:54:30;16.40;99.90
13806;DHT22;6974;53.606;9.872;2023-07-20T00:56:58;16.30;99.90
13806;DHT22;6974;53.606;9.872;2023-07-20T00:59:29;16.40;99.90
13806;DHT22;6974;53.606;9.872;2023-07-20T01:01:58;16.30;99.90
13806;DHT22;6974;53.606;9.872;2023-07-20T01:04:25;16.30;99.90
13806;DHT22;6974;53.606;9.872;2023-07-20T01:07:06;16.30;99.90
13806;DHT22;6974;53.606;9.872;2023-07-20T01:09:44;16.30;99.90
13806;DHT22;6974;53.606;9.872;2023-07-20T01:12:18;16.30;99.90
13806;DHT22;6974;53.606;9.872;2023-07-20T01:14:51;16.30;99.90
13806;DHT22;6974;53.606;9.872;2023-07-20T01:17:19;16.30;99.90
13806;DHT22;6974;53.606;9.872;2023-07-20T01:19:46;16.30;99.90
13806;DHT22;6974;53.606;9.872;2023-07-20T01:22:27;16.30;99.90
13806;DHT22;6974;53.606;9.872;2023-07-20T01:25:12;16.30;99.90
13806;DHT22;6974;53.606;9.872;2023-07-20T01:30:55;16.20;99.90
13806;DHT22;6974;53.606;9.872;2023-07-20T01:33:27;16.30;99.90
13806;DHT22;6974;53.606;9.872;2023-07-20T01:35:58;16.30;99.90
13806;DHT22;6974;53.606;9.872;2023-07-20T01:38:27;16.30;99.90
13806;DHT22;6974;53.606;9.872;2023-07-20T01:40:56;16.30;99.90
13806;DHT22;6974;53.606;9.872;2023-07-20T01:43:24;16.30;99.90
13806;DHT22;6974;53.606;9.872;2023-07-20T01:45:51;16.30;99.90
13806;DHT22;6974;53.606;9.872;2023-07-20T01:48:18;16.20;99.90
13806;DHT22;6974;53.606;9.872;2023-07-20T01:50:47;16.30;99.90
13806;DHT22;6974;53.606;9.872;2023-07-20T01:53:15;16.20;99.90
13806;DHT22;6974;53.606;9.872;2023-07-20T01:55:42;16.20;99.90
13806;DHT22;6974;53.606;9.872;2023-07-20T01:58:09;16.20;99.90
13806;DHT22;6974;53.606;9.872;2023-07-20T02:00:37;16.20;99.90
13806;DHT22;6974;53.606;9.872;2023-07-20T02:03:05;16.20;99.90
13806;DHT22;6974;53.606;9.872;2023-07-20T02:05:33;16.20;99.90
13806;DHT22;6974;53.606;9.872;2023-07-20T02:08:01;16.20;99.90
13806;DHT22;6974;53.606;9.872;2023-07-20T02:10:29;16.20;99.90
13806;DHT22;6974;53.606;9.872;2023-07-20T02:12:56;16.20;99.90
13806;DHT22;6974;53.606;9.872;2023-07-20T02:15:23;16.20;99.90
13806;DHT22;6974;53.606;9.872;2023-07-20T02:17:50;16.20;99.90
13806;DHT22;6974;53.606;9.872;2023-07-20T02:20:17;16.20;99.90
13806;DHT22;6974;53.606;9.872;2023-07-20T02:22:44;16.20;99.90
13806;DHT22;6974;53.606;9.872;2023-07-20T02:25:15;16.20;99.90
13806;DHT22;6974;53.606;9.872;2023-07-20T02:27:43;16.20;99.90
13806;DHT22;6974;53.606;9.872;2023-07-20T02:30:10;16.20;99.90
13806;DHT22;6974;53.606;9.872;2023-07-20T02:32:39;16.20;99.90
13806;DHT22;6974;53.606;9.872;2023-07-20T02:35:07;16.20;99.90
13806;DHT22;6974;53.606;9.872;2023-07-20T02:37:34;16.10;99.90
13806;DHT22;6974;53.606;9.872;2023-07-20T02:40:03;16.10;99.90
13806;DHT22;6974;53.606;9.872;2023-07-20T02:42:32;16.10;99.90
13806;DHT22;6974;53.606;9.872;2023-07-20T02:45:00;16.10;99.90
13806;DHT22;6974;53.606;9.872;2023-07-20T02:47:27;16.10;99.90
13806;DHT22;6974;53.606;9.872;2023-07-20T02:49:54;16.10;99.90
13806;DHT22;6974;53.606;9.872;2023-07-20T02:52:21;16.10;99.90
13806;DHT22;6974;53.606;9.872;2023-07-20T02:54:48;16.10;99.90
13806;DHT22;6974;53.606;9.872;2023-07-20T02:57:17;16.10;99.90
13806;DHT22;6974;53.606;9.872;2023-07-20T02:59:46;16.10;99.90
13806;DHT22;6974;53.606;9.872;2023-07-20T03:02:14;16.20;99.90
13806;DHT22;6974;53.606;9.872;2023-07-20T03:04:42;16.20;99.90
13806;DHT22;6974;53.606;9.872;2023-07-20T03:07:11;16.20;99.90
13806;DHT22;6974;53.606;9.872;2023-07-20T03:09:38;16.20;99.90
13806;DHT22;6974;53.606;9.872;2023-07-20T03:12:08;16.20;99.90
13806;DHT22;6974;53.606;9.872;2023-07-20T03:14:36;16.20;99.90
13806;DHT22;6974;53.606;9.872;2023-07-20T03:17:05;16.10;99.90
13806;DHT22;6974;53.606;9.872;2023-07-20T03:19:32;16.10;99.90
13806;DHT22;6974;53.606;9.872;2023-07-20T03:21:59;16.10;99.90
13806;DHT22;6974;53.606;9.872;2023-07-20T03:24:29;16.00;99.90
13806;DHT22;6974;53.606;9.872;2023-07-20T03:26:56;16.10;99.90
13806;DHT22;6974;53.606;9.872;2023-07-20T03:29:23;16.10;99.90
13806;DHT22;6974;53.606;9.872;2023-07-20T03:31:50;16.10;99.90
13806;DHT22;6974;53.606;9.872;2023-07-20T03:34:19;16.10;99.90
13806;DHT22;6974;53.606;9.872;2023-07-20T03:36:46;16.00;99.90
13806;DHT22;6974;53.606;9.872;2023-07-20T03:39:15;16.10;99.90
13806;DHT22;6974;53.606;9.872;2023-07-20T03:41:42;16.10;99.90
13806;DHT22;6974;53.606;9.872;2023-07-20T03:44:09;16.10;99.90
13806;DHT22;6974;53.606;9.872;2023-07-20T03:46:37;16.10;99.90
13806;DHT22;6974;53.606;9.872;2023-07-20T03:49:04;16.00;99.90
13806;DHT22;6974;53.606;9.872;2023-07-20T03:51:33;16.00;99.90
13806;DHT22;6974;53.606;9.872;2023-07-20T03:54:00;16.10;99.90
13806;DHT22;6974;53.606;9.872;2023-07-20T03:56:27;16.10;99.90
13806;DHT22;6974;53.606;9.872;2023-07-20T03:58:59;16.00;99.90
13806;DHT22;6974;53.606;9.872;2023-07-20T04:01:26;16.00;99.90
13806;DHT22;6974;53.606;9.872;2023-07-20T04:03:53;16.10;99.90
13806;DHT22;6974;53.606;9.872;2023-07-20T04:06:21;16.10;99.90
13806;DHT22;6974;53.606;9.872;2023-07-20T04:08:50;16.10;99.90
13806;DHT22;6974;53.606;9.872;2023-07-20T04:11:17;16.10;99.90
13806;DHT22;6974;53.606;9.872;2023-07-20T04:13:44;16.10;99.90
13806;DHT22;6974;53.606;9.872;2023-07-20T04:16:12;16.10;99.90
13806;DHT22;6974;53.606;9.872;2023-07-20T04:18:39;16.10;99.90
13806;DHT22;6974;53.606;9.872;2023-07-20T04:21:08;16.10;99.90
13806;DHT22;6974;53.606;9.872;2023-07-20T04:23:35;16.10;99.90
13806;DHT22;6974;53.606;9.872;2023-07-20T04:26:04;16.10;99.90
13806;DHT22;6974;53.606;9.872;2023-07-20T04:28:32;16.10;99.90
13806;DHT22;6974;53.606;9.872;2023-07-20T04:31:09;16.10;99.90
13806;DHT22;6974;53.606;9.872;2023-07-20T04:33:37;16.10;99.90
13806;DHT22;6974;53.606;9.872;2023-07-20T04:36:07;16.10;99.90
13806;DHT22;6974;53.606;9.872;2023-07-20T04:38:34;16.10;99.90
13806;DHT22;6974;53.606;9.872;2023-07-20T04:41:04;16.10;99.90
13806;DHT22;6974;53.606;9.872;2023-07-20T04:43:31;16.10;99.90
13806;DHT22;6974;53.606;9.872;2023-07-20T04:45:58;16.10;99.90
13806;DHT22;6974;53.606;9.872;2023-07-20T04:48:25;16.10;99.90
13806;DHT22;6974;53.606;9.872;2023-07-20T04:50:52;16.20;99.90
13806;DHT22;6974;53.606;9.872;2023-07-20T04:53:21;16.20;99.90
13806;DHT22;6974;53.606;9.872;2023-07-20T04:55:49;16.20;99.90
13806;DHT22;6974;53.606;9.872;2023-07-20T04:58:22;16.10;99.90
13806;DHT22;6974;53.606;9.872;2023-07-20T05:00:49;16.20;99.90
13806;DHT22;6974;53.606;9.872;2023-07-20T05:03:16;16.10;99.90
13806;DHT22;6974;53.606;9.872;2023-07-20T05:05:43;16.20;99.90
13806;DHT22;6974;53.606;9.872;2023-07-20T05:08:10;16.20;99.90
13806;DHT22;6974;53.606;9.872;2023-07-20T05:10:36;16.20;99.90
13806;DHT22;6974;53.606;9.872;2023-07-20T05:13:03;16.20;99.90
13806;DHT22;6974;53.606;9.872;2023-07-20T05:15:32;16.20;99.90
13806;DHT22;6974;53.606;9.872;2023-07-20T05:17:59;16.30;99.90
13806;DHT22;6974;53.606;9.872;2023-07-20T05:20:26;16.30;99.90
13806;DHT22;6974;53.606;9.872;2023-07-20T05:22:53;16.30;99.90
13806;DHT22;6974;53.606;9.872;2023-07-20T05:25:20;16.30;99.90
13806;DHT22;6974;53.606;9.872;2023-07-20T05:27:48;16.40;99.90
13806;DHT22;6974;53.606;9.872;2023-07-20T05:30:16;16.40;99.90
13806;DHT22;6974;53.606;9.872;2023-07-20T05:32:44;16.40;99.90
13806;DHT22;6974;53.606;9.872;2023-07-20T05:35:13;16.40;99.90
13806;DHT22;6974;53.606;9.872;2023-07-20T05:37:42;16.50;99.90
13806;DHT22;6974;53.606;9.872;2023-07-20T05:40:09;16.40;99.90
13806;DHT22;6974;53.606;9.872;2023-07-20T05:42:37;16.50;99.90
13806;DHT22;6974;53.606;9.872;2023-07-20T05:45:05;16.50;99.90
13806;DHT22;6974;53.606;9.872;2023-07-20T05:47:32;16.50;99.90
13806;DHT22;6974;53.606;9.872;2023-07-20T05:50:00;16.60;99.90
13806;DHT22;6974;53.606;9.872;2023-07-20T05:52:29;16.60;99.90
13806;DHT22;6974;53.606;9.872;2023-07-20T05:54:55;16.60;99.90
13806;DHT22;6974;53.606;9.872;2023-07-20T05:57:22;16.60;99.90
13806;DHT22;6974;53.606;9.872;2023-07-20T05:59:49;16.70;99.90
13806;DHT22;6974;53.606;9.872;2023-07-20T06:02:16;16.70;99.90
13806;DHT22;6974;53.606;9.872;2023-07-20T06:04:43;16.70;99.90
13806;DHT22;6974;53.606;9.872;2023-07-20T06:07:11;16.70;99.90
13806;DHT22;6974;53.606;9.872;2023-07-20T06:09:39;16.80;99.90
13806;DHT22;6974;53.606;9.872;2023-07-20T06:12:07;16.80;99.90
13806;DHT22;6974;53.606;9.872;2023-07-20T06:14:34;16.80;99.90
13806;DHT22;6974;53.606;9.872;2023-07-20T06:17:01;16.80;99.90
13806;DHT22;6974;53.606;9.872;2023-07-20T06:19:28;16.90;99.90
13806;DHT22;6974;53.606;9.872;2023-07-20T06:21:55;16.90;99.90
13806;DHT22;6974;53.606;9.872;2023-07-20T06:24:23;17.00;99.90
13806;DHT22;6974;53.606;9.872;2023-07-20T06:26:50;17.10;99.90
13806;DHT22;6974;53.606;9.872;2023-07-20T06:29:16;17.10;99.90
13806;DHT22;6974;53.606;9.872;2023-07-20T06:31:44;17.20;99.90
13806;DHT22;6974;53.606;9.872;2023-07-20T06:34:11;17.20;99.90
13806;DHT22;6974;53.606;9.872;2023-07-20T06:36:38;17.20;99.90
13806;DHT22;6974;53.606;9.872;2023-07-20T06:39:05;17.20;99.90
13806;DHT22;6974;53.606;9.872;2023-07-20T06:41:33;17.20;99.90
13806;DHT22;6974;53.606;9.872;2023-07-20T06:44:00;17.30;99.90
13806;DHT22;6974;53.606;9.872;2023-07-20T06:46:26;17.20;99.90
13806;DHT22;6974;53.606;9.872;2023-07-20T06:48:53;17.30;99.90
13806;DHT22;6974;53.606;9.872;2023-07-20T06:51:21;17.20;99.90
13806;DHT22;6974;53.606;9.872;2023-07-20T06:53:47;17.20;99.90
13806;DHT22;6974;53.606;9.872;2023-07-20T06:56:14;17.30;99.90
13806;DHT22;6974;53.606;9.872;2023-07-20T06:58:42;17.20;99.90
13806;DHT22;6974;53.606;9.872;2023-07-20T07:01:09;17.30;99.90
13806;DHT22;6974;53.606;9.872;2023-07-20T07:03:36;17.30;99.90
13806;DHT22;6974;53.606;9.872;2023-07-20T07:06:03;17.30;99.90
13806;DHT22;6974;53.606;9.872;2023-07-20T07:08:30;17.40;99.90
13806;DHT22;6974;53.606;9.872;2023-07-20T07:10:57;17.40;99.90
13806;DHT22;6974;53.606;9.872;2023-07-20T07:13:24;17.50;99.90
13806;DHT22;6974;53.606;9.872;2023-07-20T07:15:52;17.50;99.90
13806;DHT22;6974;53.606;9.872;2023-07-20T07:18:19;17.50;99.90
13806;DHT22;6974;53.606;9.872;2023-07-20T07:20:53;17.60;99.90
13806;DHT22;6974;53.606;9.872;2023-07-20T07:23:19;17.70;99.90
13806;DHT22;6974;53.606;9.872;2023-07-20T07:25:46;17.70;99.90
13806;DHT22;6974;53.606;9.872;2023-07-20T07:28:13;17.70;99.90
13806;DHT22;6974;53.606;9.872;2023-07-20T07:30:41;17.60;99.90
13806;DHT22;6974;53.606;9.872;2023-07-20T07:33:09;17.50;99.90
13806;DHT22;6974;53.606;9.872;2023-07-20T07:35:36;17.40;99.90
13806;DHT22;6974;53.606;9.872;2023-07-20T07:38:03;17.40;99.90
13806;DHT22;6974;53.606;9.872;2023-07-20T07:40:30;17.50;99.90
13806;DHT22;6974;53.606;9.872;2023-07-20T07:42:57;17.50;99.90
13806;DHT22;6974;53.606;9.872;2023-07-20T07:45:24;17.50;99.90
13806;DHT22;6974;53.606;9.872;2023-07-20T07:47:51;17.60;99.90
13806;DHT22;6974;53.606;9.872;2023-07-20T07:50:19;17.60;99.90
13806;DHT22;6974;53.606;9.872;2023-07-20T07:52:46;17.60;99.90
13806;DHT22;6974;53.606;9.872;2023-07-20T07:55:13;17.60;99.90
13806;DHT22;6974;53.606;9.872;2023-07-20T07:57:42;17.60;99.90
13806;DHT22;6974;53.606;9.872;2023-07-20T08:00:10;17.70;99.90
13806;DHT22;6974;53.606;9.872;2023-07-20T08:02:40;17.70;99.90
13806;DHT22;6974;53.606;9.872;2023-07-20T08:05:07;17.80;99.90
13806;DHT22;6974;53.606;9.872;2023-07-20T08:07:35;17.80;99.90
13806;DHT22;6974;53.606;9.872;2023-07-20T08:10:02;17.90;99.90
13806;DHT22;6974;53.606;9.872;2023-07-20T08:12:29;18.00;99.90
13806;DHT22;6974;53.606;9.872;2023-07-20T08:14:56;17.90;99.90
13806;DHT22;6974;53.606;9.872;2023-07-20T08:17:23;17.90;99.90
13806;DHT22;6974;53.606;9.872;2023-07-20T08:19:50;17.90;99.90
13806;DHT22;6974;53.606;9.872;2023-07-20T08:22:17;17.90;99.90
13806;DHT22;6974;53.606;9.872;2023-07-20T08:24:46;17.80;99.90
13806;DHT22;6974;53.606;9.872;2023-07-20T08:27:13;17.80;99.90
13806;DHT22;6974;53.606;9.872;2023-07-20T08:29:39;18.00;99.90
13806;DHT22;6974;53.606;9.872;2023-07-20T08:32:07;18.20;99.90
13806;DHT22;6974;53.606;9.872;2023-07-20T08:34:33;18.30;99.90
13806;DHT22;6974;53.606;9.872;2023-07-20T08:37:00;18.40;99.90
13806;DHT22;6974;53.606;9.872;2023-07-20T08:39:27;18.40;99.90
13806;DHT22;6974;53.606;9.872;2023-07-20T08:41:57;18.30;99.90
13806;DHT22;6974;53.606;9.872;2023-07-20T08:44:27;18.20;99.90
13806;DHT22;6974;53.606;9.872;2023-07-20T08:46:54;18.00;99.90
13806;DHT22;6974;53.606;9.872;2023-07-20T08:49:21;17.90;99.90
13806;DHT22;6974;53.606;9.872;2023-07-20T08:51:48;17.90;99.90
13806;DHT22;6974;53.606;9.872;2023-07-20T08:54:16;18.00;99.90
13806;DHT22;6974;53.606;9.872;2023-07-20T08:56:45;18.10;99.90
13806;DHT22;6974;53.606;9.872;2023-07-20T08:59:16;18.20;99.90
13806;DHT22;6974;53.606;9.872;2023-07-20T09:01:44;18.40;99.90
13806;DHT22;6974;53.606;9.872;2023-07-20T09:04:11;18.60;99.90
13806;DHT22;6974;53.606;9.872;2023-07-20T09:06:38;18.70;99.90
13806;DHT22;6974;53.606;9.872;2023-07-20T09:09:05;18.60;99.90
13806;DHT22;6974;53.606;9.872;2023-07-20T09:11:32;18.60;99.90
13806;DHT22;6974;53.606;9.872;2023-07-20T09:14:03;18.70;99.90
13806;DHT22;6974;53.606;9.872;2023-07-20T09:16:31;18.80;99.90
13806;DHT22;6974;53.606;9.872;2023-07-20T09:18:58;18.70;99.90
13806;DHT22;6974;53.606;9.872;2023-07-20T09:21:29;18.50;99.90
13806;DHT22;6974;53.606;9.872;2023-07-20T09:23:56;18.20;99.90
13806;DHT22;6974;53.606;9.872;2023-07-20T09:26:23;18.00;99.90
13806;DHT22;6974;53.606;9.872;2023-07-20T09:28:52;17.90;99.90
13806;DHT22;6974;53.606;9.872;2023-07-20T09:31:21;17.90;99.90
13806;DHT22;6974;53.606;9.872;2023-07-20T09:33:51;17.80;99.90
13806;DHT22;6974;53.606;9.872;2023-07-20T09:36:19;17.80;99.90
13806;DHT22;6974;53.606;9.872;2023-07-20T09:38:46;17.90;99.90
13806;DHT22;6974;53.606;9.872;2023-07-20T09:41:14;18.00;99.90
13806;DHT22;6974;53.606;9.872;2023-07-20T09:43:42;18.20;99.90
13806;DHT22;6974;53.606;9.872;2023-07-20T09:46:09;18.40;99.90
13806;DHT22;6974;53.606;9.872;2023-07-20T09:48:36;18.60;99.90
13806;DHT22;6974;53.606;9.872;2023-07-20T09:51:06;18.80;99.90
13806;DHT22;6974;53.606;9.872;2023-07-20T09:53:34;19.00;99.90
13806;DHT22;6974;53.606;9.872;2023-07-20T09:56:02;19.20;99.90
13806;DHT22;6974;53.606;9.872;2023-07-20T09:58:30;19.40;99.90
13806;DHT22;6974;53.606;9.872;2023-07-20T10:01:01;19.60;99.90
13806;DHT22;6974;53.606;9.872;2023-07-20T10:03:30;19.80;99.90
13806;DHT22;6974;53.606;9.872;2023-07-20T10:06:02;20.00;99.90
13806;DHT22;6974;53.606;9.872;2023-07-20T10:08:33;20.10;99.90
13806;DHT22;6974;53.606;9.872;2023-07-20T10:11:02;20.20;99.90
13806;DHT22;6974;53.606;9.872;2023-07-20T10:13:30;20.30;99.90
13806;DHT22;6974;53.606;9.872;2023-07-20T10:16:02;20.60;99.90
13806;DHT22;6974;53.606;9.872;2023-07-20T10:18:34;20.70;99.90
13806;DHT22;6974;53.606;9.872;2023-07-20T10:21:02;20.50;99.90
13806;DHT22;6974;53.606;9.872;2023-07-20T10:23:31;20.30;99.90
13806;DHT22;6974;53.606;9.872;2023-07-20T10:25:59;20.20;99.90
13806;DHT22;6974;53.606;9.872;2023-07-20T10:28:28;20.30;99.90
13806;DHT22;6974;53.606;9.872;2023-07-20T10:30:55;20.30;99.90
13806;DHT22;6974;53.606;9.872;2023-07-20T10:33:22;20.50;99.90
13806;DHT22;6974;53.606;9.872;2023-07-20T10:35:53;20.70;99.90
13806;DHT22;6974;53.606;9.872;2023-07-20T10:38:20;21.00;99.90
13806;DHT22;6974;53.606;9.872;2023-07-20T10:41:18;21.10;99.90
13806;DHT22;6974;53.606;9.872;2023-07-20T10:43:45;21.10;99.90
13806;DHT22;6974;53.606;9.872;2023-07-20T10:46:13;20.80;99.90
13806;DHT22;6974;53.606;9.872;2023-07-20T10:48:58;20.50;99.90
13806;DHT22;6974;53.606;9.872;2023-07-20T10:51:25;20.10;99.90
13806;DHT22;6974;53.606;9.872;2023-07-20T10:53:52;20.20;99.90
13806;DHT22;6974;53.606;9.872;2023-07-20T10:58:57;20.60;99.90
13806;DHT22;6974;53.606;9.872;2023-07-20T11:01:28;20.40;99.90
13806;DHT22;6974;53.606;9.872;2023-07-20T11:03:58;20.20;99.90
13806;DHT22;6974;53.606;9.872;2023-07-20T11:06:32;19.90;99.90
13806;DHT22;6974;53.606;9.872;2023-07-20T11:09:06;19.60;99.90
13806;DHT22;6974;53.606;9.872;2023-07-20T11:11:37;19.60;99.90
13806;DHT22;6974;53.606;9.872;2023-07-20T11:14:07;19.80;99.90
13806;DHT22;6974;53.606;9.872;2023-07-20T11:16:39;20.10;99.90
13806;DHT22;6974;53.606;9.872;2023-07-20T11:19:15;20.40;99.90
13806;DHT22;6974;53.606;9.872;2023-07-20T11:21:45;20.60;99.90
13806;DHT22;6974;53.606;9.872;2023-07-20T11:24:13;20.60;99.90
13806;DHT22;6974;53.606;9.872;2023-07-20T11:26:42;20.60;99.90
13806;DHT22;6974;53.606;9.872;2023-07-20T11:29:11;20.40;99.90
13806;DHT22;6974;53.606;9.872;2023-07-20T11:31:40;20.30;99.90
13806;DHT22;6974;53.606;9.872;2023-07-20T11:34:10;20.30;99.90
13806;DHT22;6974;53.606;9.872;2023-07-20T11:36:39;20.40;99.90
13806;DHT22;6974;53.606;9.872;2023-07-20T11:39:07;20.50;99.90
13806;DHT22;6974;53.606;9.872;2023-07-20T11:41:35;20.40;99.90
13806;DHT22;6974;53.606;9.872;2023-07-20T11:44:02;20.50;99.90
13806;DHT22;6974;53.606;9.872;2023-07-20T11:46:31;20.50;99.90
13806;DHT22;6974;53.606;9.872;2023-07-20T11:48:58;20.50;99.90
13806;DHT22;6974;53.606;9.872;2023-07-20T11:51:27;20.50;99.90
13806;DHT22;6974;53.606;9.872;2023-07-20T11:53:55;20.50;99.90
13806;DHT22;6974;53.606;9.872;2023-07-20T11:56:23;20.40;99.90
13806;DHT22;6974;53.606;9.872;2023-07-20T11:58:54;20.40;99.90
13806;DHT22;6974;53.606;9.872;2023-07-20T12:01:21;20.40;99.90
13806;DHT22;6974;53.606;9.872;2023-07-20T12:03:52;20.50;99.90
13806;DHT22;6974;53.606;9.872;2023-07-20T12:06:23;20.40;99.90
13806;DHT22;6974;53.606;9.872;2023-07-20T12:08:53;20.50;99.90
13806;DHT22;6974;53.606;9.872;2023-07-20T12:11:31;20.60;99.90
13806;DHT22;6974;53.606;9.872;2023-07-20T12:13:59;20.70;99.90
13806;DHT22;6974;53.606;9.872;2023-07-20T12:16:27;20.70;99.90
13806;DHT22;6974;53.606;9.872;2023-07-20T12:19:01;20.60;99.90
13806;DHT22;6974;53.606;9.872;2023-07-20T12:21:29;20.60;99.90
13806;DHT22;6974;53.606;9.872;2023-07-20T12:23:57;20.70;99.90
13806;DHT22;6974;53.606;9.872;2023-07-20T12:26:25;20.90;99.90
13806;DHT22;6974;53.606;9.872;2023-07-20T12:28:52;21.00;99.90
13806;DHT22;6974;53.606;9.872;2023-07-20T12:31:20;21.00;99.90
13806;DHT22;6974;53.606;9.872;2023-07-20T12:33:48;20.90;99.90
13806;DHT22;6974;53.606;9.872;2023-07-20T12:36:20;20.90;99.90
13806;DHT22;6974;53.606;9.872;2023-07-20T12:38:47;21.00;99.90
13806;DHT22;6974;53.606;9.872;2023-07-20T12:41:14;20.90;99.90
13806;DHT22;6974;53.606;9.872;2023-07-20T12:43:43;21.10;99.90
13806;DHT22;6974;53.606;9.872;2023-07-20T12:46:12;21.10;99.90
13806;DHT22;6974;53.606;9.872;2023-07-20T12:48:40;21.00;99.90
13806;DHT22;6974;53.606;9.872;2023-07-20T12:51:11;21.00;99.90
13806;DHT22;6974;53.606;9.872;2023-07-20T12:53:40;21.00;99.90
13806;DHT22;6974;53.606;9.872;2023-07-20T12:56:07;21.00;99.90
13806;DHT22;6974;53.606;9.872;2023-07-20T12:58:35;21.10;99.90
13806;DHT22;6974;53.606;9.872;2023-07-20T13:01:02;21.20;99.90
13806;DHT22;6974;53.606;9.872;2023-07-20T13:03:29;21.40;99.90
13806;DHT22;6974;53.606;9.872;2023-07-20T13:05:57;21.60;99.90
13806;DHT22;6974;53.606;9.872;2023-07-20T13:08:25;21.70;99.90
13806;DHT22;6974;53.606;9.872;2023-07-20T13:10:55;21.90;99.90
13806;DHT22;6974;53.606;9.872;2023-07-20T13:13:22;21.90;99.90
13806;DHT22;6974;53.606;9.872;2023-07-20T13:15:50;21.60;99.90
13806;DHT22;6974;53.606;9.872;2023-07-20T13:18:17;21.40;99.90
13806;DHT22;6974;53.606;9.872;2023-07-20T13:20:44;21.50;99.90
13806;DHT22;6974;53.606;9.872;2023-07-20T13:23:12;21.70;99.90
13806;DHT22;6974;53.606;9.872;2023-07-20T13:25:39;21.80;99.90
13806;DHT22;6974;53.606;9.872;2023-07-20T13:28:08;21.80;99.90
13806;DHT22;6974;53.606;9.872;2023-07-20T13:30:35;21.80;99.90
13806;DHT22;6974;53.606;9.872;2023-07-20T13:33:03;21.90;99.90
13806;DHT22;6974;53.606;9.872;2023-07-20T13:35:30;22.20;99.90
13806;DHT22;6974;53.606;9.872;2023-07-20T13:38:00;22.30;99.90
13806;DHT22;6974;53.606;9.872;2023-07-20T13:40:28;22.10;99.90
13806;DHT22;6974;53.606;9.872;2023-07-20T13:42:58;21.80;99.90
13806;DHT22;6974;53.606;9.872;2023-07-20T13:45:27;21.80;99.90
13806;DHT22;6974;53.606;9.872;2023-07-20T13:47:54;21.90;99.90
13806;DHT22;6974;53.606;9.872;2023-07-20T13:50:22;22.10;99.90
13806;DHT22;6974;53.606;9.872;2023-07-20T13:52:49;22.00;99.90
13806;DHT22;6974;53.606;9.872;2023-07-20T13:55:16;22.00;99.90
13806;DHT22;6974;53.606;9.872;2023-07-20T13:57:44;22.10;99.90
13806;DHT22;6974;53.606;9.872;2023-07-20T14:00:13;22.30;99.90
13806;DHT22;6974;53.606;9.872;2023-07-20T14:02:44;22.50;99.90
13806;DHT22;6974;53.606;9.872;2023-07-20T14:05:11;22.60;99.90
13806;DHT22;6974;53.606;9.872;2023-07-20T14:07:41;22.70;99.90
13806;DHT22;6974;53.606;9.872;2023-07-20T14:10:09;22.90;99.90
13806;DHT22;6974;53.606;9.872;2023-07-20T14:12:36;22.90;99.90
13806;DHT22;6974;53.606;9.872;2023-07-20T14:15:04;22.90;99.90
13806;DHT22;6974;53.606;9.872;2023-07-20T14:17:32;23.10;99.90
13806;DHT22;6974;53.606;9.872;2023-07-20T14:20:00;23.00;99.90
13806;DHT22;6974;53.606;9.872;2023-07-20T14:22:30;23.10;99.90
13806;DHT22;6974;53.606;9.872;2023-07-20T14:24:57;23.40;99.90
13806;DHT22;6974;53.606;9.872;2023-07-20T14:27:25;23.40;99.90
13806;DHT22;6974;53.606;9.872;2023-07-20T14:29:52;23.60;99.90
13806;DHT22;6974;53.606;9.872;2023-07-20T14:32:20;23.60;99.90
13806;DHT22;6974;53.606;9.872;2023-07-20T14:34:47;23.60;99.90
13806;DHT22;6974;53.606;9.872;2023-07-20T14:37:17;23.80;99.90
13806;DHT22;6974;53.606;9.872;2023-07-20T14:39:44;23.80;99.90
13806;DHT22;6974;53.606;9.872;2023-07-20T14:42:11;23.70;99.90
13806;DHT22;6974;53.606;9.872;2023-07-20T14:44:40;23.80;99.90
13806;DHT22;6974;53.606;9.872;2023-07-20T14:47:07;23.90;99.90
13806;DHT22;6974;53.606;9.872;2023-07-20T14:49:34;23.90;99.90
13806;DHT22;6974;53.606;9.872;2023-07-20T14:52:02;23.80;99.90
13806;DHT22;6974;53.606;9.872;2023-07-20T14:54:31;23.60;99.90
13806;DHT22;6974;53.606;9.872;2023-07-20T14:56:58;23.40;99.90
13806;DHT22;6974;53.606;9.872;2023-07-20T14:59:25;23.40;99.90
13806;DHT22;6974;53.606;9.872;2023-07-20T15:01:53;23.40;99.90
13806;DHT22;6974;53.606;9.872;2023-07-20T15:04:21;23.20;99.90
13806;DHT22;6974;53.606;9.872;2023-07-20T15:06:48;23.00;99.90
13806;DHT22;6974;53.606;9.872;2023-07-20T15:09:16;22.70;99.90
13806;DHT22;6974;53.606;9.872;2023-07-20T15:11:44;22.60;99.90
13806;DHT22;6974;53.606;9.872;2023-07-20T15:14:12;22.40;99.90
13806;DHT22;6974;53.606;9.872;2023-07-20T15:16:39;22.40;99.90
13806;DHT22;6974;53.606;9.872;2023-07-20T15:19:09;22.40;99.90
13806;DHT22;6974;53.606;9.872;2023-07-20T15:21:39;22.60;99.90
13806;DHT22;6974;53.606;9.872;2023-07-20T15:24:06;22.90;99.90
13806;DHT22;6974;53.606;9.872;2023-07-20T15:26:33;23.00;99.90
13806;DHT22;6974;53.606;9.872;2023-07-20T15:29:02;23.00;99.90
13806;DHT22;6974;53.606;9.872;2023-07-20T15:31:29;23.10;99.90
13806;DHT22;6974;53.606;9.872;2023-07-20T15:33:57;23.10;99.90
13806;DHT22;6974;53.606;9.872;2023-07-20T15:36:24;23.30;99.90
13806;DHT22;6974;53.606;9.872;2023-07-20T15:38:52;23.50;99.90
13806;DHT22;6974;53.606;9.872;2023-07-20T15:41:19;23.60;99.90
13806;DHT22;6974;53.606;9.872;2023-07-20T15:43:48;23.60;99.90
13806;DHT22;6974;53.606;9.872;2023-07-20T15:49:16;23.20;99.90
13806;DHT22;6974;53.606;9.872;2023-07-20T15:51:44;23.10;99.90
13806;DHT22;6974;53.606;9.872;2023-07-20T15:54:13;23.00;99.90
13806;DHT22;6974;53.606;9.872;2023-07-20T15:56:42;22.90;99.90
13806;DHT22;6974;53.606;9.872;2023-07-20T15:59:11;23.10;99.90